createdAt,value
2022-09-15T00:02:13.979Z,26.41
2022-09-15T00:04:40.511Z,26.41
2022-09-15T00:07:06.980Z,26.38
2022-09-15T00:09:33.359Z,26.24
2022-09-15T00:11:59.798Z,26.23
2022-09-15T00:14:26.300Z,26.20
2022-09-15T00:16:52.770Z,26.12
2022-09-15T00:19:19.262Z,25.99
2022-09-15T00:21:45.726Z,26.12
2022-09-15T00:24:12.153Z,26.01
2022-09-15T00:26:38.609Z,26.03
2022-09-15T00:29:05.015Z,26.01
2022-09-15T00:31:31.534Z,25.93
2022-09-15T00:33:58.416Z,25.59
2022-09-15T00:36:24.975Z,25.80
2022-09-15T00:38:51.718Z,25.94
2022-09-15T00:41:18.630Z,25.90
2022-09-15T00:43:45.156Z,25.89
2022-09-15T00:46:11.684Z,25.96
2022-09-15T00:48:39.186Z,25.75
2022-09-15T00:51:05.748Z,25.89
2022-09-15T00:53:32.164Z,25.84
2022-09-15T00:55:58.587Z,25.81
2022-09-15T00:58:33.029Z,25.62
2022-09-15T01:01:00.838Z,25.63
2022-09-15T01:03:27.772Z,25.88
2022-09-15T01:06:14.438Z,25.85
2022-09-15T01:08:45.658Z,25.84
2022-09-15T01:11:12.210Z,25.96
2022-09-15T01:13:38.699Z,25.98
2022-09-15T01:16:11.123Z,25.95
2022-09-15T01:18:37.507Z,25.97
2022-09-15T01:21:03.921Z,25.92
2022-09-15T01:23:59.543Z,25.87
2022-09-15T01:26:44.340Z,25.89
2022-09-15T01:29:16.882Z,25.90
2022-09-15T01:32:06.241Z,25.90
2022-09-15T01:34:33.915Z,25.88
2022-09-15T01:37:02.206Z,25.86
2022-09-15T01:39:29.579Z,25.90
2022-09-15T01:41:57.152Z,25.87
2022-09-15T01:44:24.955Z,25.88
2022-09-15T01:46:52.744Z,25.97
2022-09-15T01:49:21.084Z,25.97
2022-09-15T01:51:48.142Z,25.99
2022-09-15T01:54:14.585Z,25.99
2022-09-15T01:56:41.732Z,26.05
2022-09-15T01:59:08.687Z,26.01
2022-09-15T02:01:40.553Z,26.06
2022-09-15T02:04:18.427Z,26.04
2022-09-15T02:06:53.314Z,26.06
2022-09-15T02:09:23.370Z,26.06
2022-09-15T02:12:10.571Z,26.02
2022-09-15T02:14:49.248Z,26.09
2022-09-15T02:17:16.584Z,25.96
2022-09-15T02:19:47.924Z,25.96
2022-09-15T02:22:17.737Z,26.07
2022-09-15T02:24:50.152Z,26.01
2022-09-15T02:27:17.901Z,25.85
2022-09-15T02:29:45.322Z,25.69
2022-09-15T02:32:11.842Z,25.76
2022-09-15T02:34:40.616Z,25.68
2022-09-15T02:37:07.012Z,25.75
2022-09-15T02:39:35.047Z,25.80
2022-09-15T02:42:02.546Z,25.76
2022-09-15T02:44:30.686Z,25.75
2022-09-15T02:46:58.017Z,25.96
2022-09-15T02:49:24.441Z,26.08
2022-09-15T02:51:50.825Z,26.14
2022-09-15T02:54:17.241Z,26.09
2022-09-15T02:56:43.652Z,26.06
2022-09-15T02:59:10.075Z,26.05
2022-09-15T03:01:36.535Z,25.96
2022-09-15T03:04:03.100Z,26.12
2022-09-15T03:06:34.483Z,26.21
2022-09-15T03:09:01.404Z,26.44
2022-09-15T03:11:28.103Z,26.30
2022-09-15T03:13:55.113Z,26.10
2022-09-15T03:16:21.603Z,26.15
2022-09-15T03:18:48.445Z,26.06
2022-09-15T03:21:15.002Z,26.01
2022-09-15T03:23:41.729Z,25.91
2022-09-15T03:26:09.086Z,25.91
2022-09-15T03:28:35.826Z,25.88
2022-09-15T03:31:02.392Z,25.86
2022-09-15T03:33:29.912Z,25.80
2022-09-15T03:35:56.327Z,25.82
2022-09-15T03:38:23.231Z,25.82
2022-09-15T03:40:56.342Z,25.84
2022-09-15T03:43:22.764Z,25.79
2022-09-15T03:45:49.209Z,25.48
2022-09-15T03:48:15.663Z,25.59
2022-09-15T03:50:42.064Z,25.61
2022-09-15T03:53:08.514Z,25.67
2022-09-15T03:55:35.090Z,25.65
2022-09-15T03:58:01.537Z,25.54
2022-09-15T04:00:28.002Z,25.58
2022-09-15T04:02:54.725Z,25.50
2022-09-15T04:05:21.121Z,25.43
2022-09-15T04:07:47.529Z,25.52
2022-09-15T04:10:14.326Z,25.46
2022-09-15T04:12:40.820Z,25.33
2022-09-15T04:15:07.403Z,25.53
2022-09-15T04:17:33.823Z,25.45
2022-09-15T04:20:00.218Z,25.77
2022-09-15T04:22:27.640Z,25.72
2022-09-15T04:24:54.124Z,25.71
2022-09-15T04:27:20.913Z,25.78
2022-09-15T04:29:47.313Z,25.80
2022-09-15T04:32:13.746Z,25.73
2022-09-15T04:34:41.543Z,25.75
2022-09-15T04:37:08.063Z,25.75
2022-09-15T04:39:34.601Z,25.89
2022-09-15T04:42:03.755Z,25.81
2022-09-15T04:44:30.140Z,25.86
2022-09-15T04:46:56.632Z,25.94
2022-09-15T04:49:23.104Z,25.91
2022-09-15T04:51:49.562Z,25.60
2022-09-15T04:54:15.945Z,25.51
2022-09-15T04:56:42.746Z,25.62
2022-09-15T04:59:12.427Z,25.57
2022-09-15T05:01:38.897Z,25.64
2022-09-15T05:04:05.398Z,25.67
2022-09-15T05:06:31.830Z,25.80
2022-09-15T05:08:58.284Z,25.75
2022-09-15T05:11:24.920Z,25.64
2022-09-15T05:13:51.545Z,25.72
2022-09-15T05:16:21.574Z,25.72
2022-09-15T05:18:48.559Z,25.86
2022-09-15T05:21:16.235Z,25.83
2022-09-15T05:23:42.880Z,25.63
2022-09-15T05:26:11.584Z,25.71
2022-09-15T05:28:38.016Z,25.62
2022-09-15T05:31:25.006Z,25.54
2022-09-15T05:33:52.690Z,25.68
2022-09-15T05:36:21.209Z,25.94
2022-09-15T05:38:47.761Z,25.97
2022-09-15T05:41:17.571Z,26.02
2022-09-15T05:43:44.347Z,25.64
2022-09-15T05:46:10.956Z,25.63
2022-09-15T05:48:37.526Z,25.66
2022-09-15T05:51:04.036Z,25.96
2022-09-15T05:53:31.064Z,25.79
2022-09-15T05:55:57.859Z,25.97
2022-09-15T05:58:24.732Z,26.14
2022-09-15T06:00:51.314Z,26.21
2022-09-15T06:03:17.843Z,26.31
2022-09-15T06:05:46.842Z,26.29
2022-09-15T06:08:13.292Z,26.33
2022-09-15T06:10:40.036Z,26.41
2022-09-15T06:13:06.521Z,26.36
2022-09-15T06:15:32.998Z,26.27
2022-09-15T06:17:59.446Z,26.44
2022-09-15T06:20:25.897Z,26.58
2022-09-15T06:22:53.016Z,26.49
2022-09-15T06:25:19.792Z,26.58
2022-09-15T06:27:48.462Z,26.58
2022-09-15T06:30:14.873Z,26.39
2022-09-15T06:32:44.126Z,26.42
2022-09-15T06:35:12.694Z,26.34
2022-09-15T06:37:39.138Z,26.21
2022-09-15T06:40:07.837Z,26.70
2022-09-15T06:42:34.307Z,26.89
2022-09-15T06:45:01.238Z,27.08
2022-09-15T06:47:33.878Z,27.37
2022-09-15T06:50:00.830Z,27.34
2022-09-15T06:52:27.417Z,27.22
2022-09-15T06:54:53.841Z,27.33
2022-09-15T06:57:20.394Z,27.49
2022-09-15T07:02:50.808Z,27.47
2022-09-15T07:05:17.402Z,27.54
2022-09-15T07:07:44.014Z,27.62
2022-09-15T07:10:10.443Z,27.56
2022-09-15T07:12:37.279Z,27.68
2022-09-15T07:15:03.865Z,27.57
2022-09-15T07:17:30.286Z,27.85
2022-09-15T07:19:56.717Z,27.99
2022-09-15T07:22:24.521Z,28.45
2022-09-15T07:24:50.967Z,28.70
2022-09-15T07:27:17.346Z,28.93
2022-09-15T07:29:43.945Z,29.22
2022-09-15T07:32:10.353Z,29.92
2022-09-15T07:34:36.865Z,30.95
2022-09-15T07:37:03.313Z,31.66
2022-09-15T07:39:30.996Z,32.50
2022-09-15T07:41:57.783Z,32.99
2022-09-15T07:44:24.251Z,33.69
2022-09-15T07:46:50.741Z,34.09
2022-09-15T07:49:17.190Z,33.64
2022-09-15T07:51:43.623Z,33.36
2022-09-15T07:54:10.052Z,33.34
2022-09-15T07:56:36.949Z,32.56
2022-09-15T07:59:03.414Z,32.82
2022-09-15T08:01:29.851Z,32.99
2022-09-15T08:03:56.308Z,32.72
2022-09-15T08:06:23.262Z,32.42
2022-09-15T08:08:53.996Z,32.35
2022-09-15T08:11:22.998Z,32.25
2022-09-15T08:13:50.004Z,32.34
2022-09-15T08:16:18.025Z,32.70
2022-09-15T08:18:44.582Z,33.80
2022-09-15T08:21:11.930Z,34.53
2022-09-15T08:23:38.411Z,34.62
2022-09-15T08:26:13.065Z,34.49
2022-09-15T08:28:40.193Z,33.91
2022-09-15T08:31:07.212Z,33.53
2022-09-15T08:33:33.715Z,33.79
2022-09-15T08:36:00.724Z,33.99
2022-09-15T08:38:27.155Z,33.81
2022-09-15T08:40:57.298Z,34.69
2022-09-15T08:43:23.853Z,34.94
2022-09-15T08:45:52.302Z,35.60
2022-09-15T08:48:19.453Z,36.13
2022-09-15T08:50:46.095Z,36.69
2022-09-15T08:53:14.112Z,35.71
2022-09-15T08:55:50.059Z,36.13
2022-09-15T08:58:17.179Z,36.54
2022-09-15T09:00:44.357Z,37.22
2022-09-15T09:03:10.836Z,37.78
2022-09-15T09:05:41.629Z,38.19
2022-09-15T09:08:10.789Z,37.64
2022-09-15T09:10:49.425Z,37.99
2022-09-15T09:13:20.851Z,37.62
2022-09-15T09:16:16.916Z,38.03
2022-09-15T09:19:02.306Z,38.28
2022-09-15T09:21:32.227Z,38.56
2022-09-15T09:24:01.866Z,38.64
2022-09-15T09:26:28.481Z,39.17
2022-09-15T09:28:58.921Z,39.08
2022-09-15T09:31:25.589Z,39.00
2022-09-15T09:33:55.110Z,38.36
2022-09-15T09:36:21.888Z,38.87
2022-09-15T09:38:48.304Z,39.61
2022-09-15T09:41:15.352Z,39.83
2022-09-15T09:43:46.305Z,38.85
2022-09-15T09:46:15.271Z,38.95
2022-09-15T09:49:07.900Z,37.58
2022-09-15T09:51:35.711Z,36.30
2022-09-15T09:54:12.721Z,36.51
2022-09-15T09:56:39.301Z,37.03
2022-09-15T09:59:05.733Z,36.72
2022-09-15T10:01:32.249Z,36.15
2022-09-15T10:04:17.104Z,35.80
2022-09-15T10:06:44.031Z,35.79
2022-09-15T10:09:14.307Z,35.61
2022-09-15T10:11:45.109Z,35.43
2022-09-15T10:14:28.412Z,35.03
2022-09-15T10:16:58.727Z,34.72
2022-09-15T10:19:25.418Z,34.73
2022-09-15T10:21:51.845Z,34.43
2022-09-15T10:24:27.459Z,33.86
2022-09-15T10:27:07.050Z,33.70
2022-09-15T10:29:39.920Z,33.89
2022-09-15T10:32:16.584Z,33.65
2022-09-15T10:34:44.082Z,33.37
2022-09-15T10:37:19.405Z,33.30
2022-09-15T10:39:52.883Z,33.08
2022-09-15T10:42:22.213Z,32.90
2022-09-15T10:45:11.204Z,33.05
2022-09-15T10:47:41.612Z,32.90
2022-09-15T10:50:14.312Z,33.12
2022-09-15T10:52:40.736Z,33.01
2022-09-15T10:55:31.822Z,33.27
2022-09-15T10:58:04.271Z,33.40
2022-09-15T11:00:41.191Z,33.36
2022-09-15T11:03:07.628Z,33.07
2022-09-15T11:05:34.040Z,33.22
2022-09-15T11:08:19.446Z,33.26
2022-09-15T11:10:48.884Z,33.25
2022-09-15T11:13:25.693Z,33.02
2022-09-15T11:15:55.180Z,32.90
2022-09-15T11:18:40.212Z,32.55
2022-09-15T11:21:16.927Z,32.52
2022-09-15T11:23:55.655Z,32.55
2022-09-15T11:26:28.157Z,32.31
2022-09-15T11:28:56.553Z,32.02
2022-09-15T11:31:38.732Z,31.61
2022-09-15T11:34:15.228Z,31.68
2022-09-15T11:36:49.430Z,31.53
2022-09-15T11:39:33.691Z,31.67
2022-09-15T11:42:07.798Z,31.54
2022-09-15T11:44:41.815Z,31.42
2022-09-15T11:47:13.699Z,31.10
2022-09-15T11:49:40.145Z,31.42
2022-09-15T11:52:12.774Z,31.27
2022-09-15T11:54:46.974Z,31.56
2022-09-15T11:57:18.084Z,31.69
2022-09-15T11:59:52.239Z,31.57
2022-09-15T12:02:57.337Z,31.80
2022-09-15T12:05:23.929Z,31.78
2022-09-15T12:07:51.572Z,31.95
2022-09-15T12:10:19.102Z,31.87
2022-09-15T12:16:07.677Z,31.51
2022-09-15T12:18:48.777Z,31.35
2022-09-15T12:21:22.983Z,31.21
2022-09-15T12:23:54.756Z,31.03
2022-09-15T12:26:21.547Z,31.09
2022-09-15T12:28:58.076Z,31.03
2022-09-15T12:31:25.565Z,31.14
2022-09-15T12:33:56.284Z,30.96
2022-09-15T12:36:31.967Z,30.84
2022-09-15T12:38:58.767Z,31.02
2022-09-15T12:41:25.324Z,31.22
2022-09-15T12:43:54.814Z,31.30
2022-09-15T12:46:21.401Z,31.57
2022-09-15T12:48:47.857Z,31.46
2022-09-15T12:51:21.369Z,31.36
2022-09-15T12:53:47.754Z,31.34
2022-09-15T12:56:59.858Z,31.51
2022-09-15T12:59:26.417Z,31.52
2022-09-15T13:01:53.652Z,31.49
2022-09-15T13:04:24.728Z,31.38
2022-09-15T13:07:10.136Z,31.12
2022-09-15T13:09:56.792Z,30.80
2022-09-15T13:12:24.120Z,30.43
2022-09-15T13:14:50.590Z,25.28
2022-09-15T13:17:18.417Z,22.45
2022-09-15T13:19:46.769Z,22.75
2022-09-15T13:22:27.448Z,23.08
2022-09-15T13:25:10.909Z,23.22
2022-09-15T13:27:41.358Z,23.38
2022-09-15T13:30:19.162Z,23.52
2022-09-15T13:32:45.557Z,23.62
2022-09-15T13:35:30.980Z,23.78
2022-09-15T13:38:20.219Z,23.77
2022-09-15T13:40:58.375Z,23.84
2022-09-15T13:43:42.457Z,23.57
2022-09-15T13:46:25.083Z,23.61
2022-09-15T13:49:17.827Z,23.74
2022-09-15T13:51:45.068Z,23.87
2022-09-15T13:54:19.161Z,23.91
2022-09-15T13:56:46.890Z,23.89
2022-09-15T13:59:17.073Z,23.97
2022-09-15T14:01:44.572Z,23.92
2022-09-15T14:04:17.819Z,24.00
2022-09-15T14:06:44.898Z,24.08
2022-09-15T14:09:16.329Z,24.23
2022-09-15T14:11:42.887Z,24.24
2022-09-15T14:14:21.327Z,24.26
2022-09-15T14:16:48.899Z,24.31
2022-09-15T14:19:21.049Z,24.43
2022-09-15T14:21:49.163Z,24.47
2022-09-15T14:24:20.534Z,24.50
2022-09-15T14:26:47.071Z,24.45
2022-09-15T14:29:15.124Z,24.50
2022-09-15T14:31:41.603Z,24.65
2022-09-15T14:34:14.581Z,24.64
2022-09-15T14:36:41.131Z,24.60
2022-09-15T14:39:10.479Z,24.47
2022-09-15T14:41:37.200Z,24.46
2022-09-15T14:47:27.885Z,24.33
2022-09-15T14:50:08.106Z,24.34
2022-09-15T14:52:36.098Z,24.34
2022-09-15T14:55:03.106Z,24.26
2022-09-15T14:57:31.238Z,24.29
2022-09-15T14:59:59.740Z,24.22
2022-09-15T15:02:38.344Z,24.26
2022-09-15T15:05:09.886Z,24.16
2022-09-15T15:07:36.782Z,24.15
2022-09-15T15:10:07.155Z,24.27
2022-09-15T15:12:34.862Z,24.38
2022-09-15T15:15:01.329Z,24.46
2022-09-15T15:17:33.841Z,24.50
2022-09-15T15:20:01.123Z,24.47
2022-09-15T15:22:27.540Z,24.45
2022-09-15T15:24:54.056Z,24.41
2022-09-15T15:27:32.844Z,24.40
2022-09-15T15:30:18.302Z,24.33
2022-09-15T15:32:44.726Z,24.36
2022-09-15T15:35:15.707Z,24.23
2022-09-15T15:37:46.371Z,24.28
2022-09-15T15:40:14.357Z,24.20
2022-09-15T15:42:59.924Z,24.25
2022-09-15T15:45:27.464Z,24.33
2022-09-15T15:47:54.020Z,24.44
2022-09-15T15:50:21.364Z,24.47
2022-09-15T15:52:48.205Z,24.46
2022-09-15T15:55:15.709Z,24.47
2022-09-15T15:57:42.123Z,24.29
2022-09-15T16:00:30.526Z,24.39
2022-09-15T16:02:57.311Z,24.21
2022-09-15T16:05:26.761Z,23.94
2022-09-15T16:07:53.179Z,23.92
2022-09-15T16:10:20.988Z,24.08
2022-09-15T16:12:48.109Z,24.08
2022-09-15T16:15:16.742Z,24.15
2022-09-15T16:17:46.639Z,24.10
2022-09-15T16:20:15.767Z,24.12
2022-09-15T16:22:42.461Z,24.15
2022-09-15T16:25:13.623Z,24.16
2022-09-15T16:27:41.656Z,24.17
2022-09-15T16:30:12.052Z,24.22
2022-09-15T16:32:39.753Z,24.33
2022-09-15T16:35:21.460Z,24.30
2022-09-15T16:37:47.847Z,24.29
2022-09-15T16:40:14.496Z,24.36
2022-09-15T16:42:40.968Z,24.29
2022-09-15T16:45:16.214Z,24.27
2022-09-15T16:47:42.636Z,24.27
2022-09-15T16:50:09.800Z,24.28
2022-09-15T16:52:36.286Z,24.27
2022-09-15T16:55:06.121Z,24.22
2022-09-15T16:57:32.548Z,24.21
2022-09-15T16:59:58.984Z,24.25
2022-09-15T17:02:25.652Z,24.27
2022-09-15T17:05:09.221Z,24.24
2022-09-15T17:07:35.731Z,24.21
2022-09-15T17:10:02.144Z,24.26
2022-09-15T17:12:28.586Z,24.25
2022-09-15T17:14:57.580Z,24.20
2022-09-15T17:17:24.535Z,24.25
2022-09-15T17:19:50.939Z,24.14
2022-09-15T17:22:17.428Z,24.16
2022-09-15T17:24:43.893Z,24.23
2022-09-15T17:27:10.359Z,24.15
2022-09-15T17:29:36.781Z,24.20
2022-09-15T17:32:03.221Z,24.18
2022-09-15T17:34:29.695Z,24.20
2022-09-15T17:36:57.475Z,24.22
2022-09-15T17:39:24.078Z,24.20
2022-09-15T17:41:50.895Z,24.20
2022-09-15T17:44:17.365Z,24.16
2022-09-15T17:46:43.848Z,24.17
2022-09-15T17:49:12.569Z,24.17
2022-09-15T17:51:39.074Z,24.11
2022-09-15T17:54:07.431Z,24.10
2022-09-15T17:56:34.220Z,24.10
2022-09-15T17:59:00.846Z,24.07
2022-09-15T18:01:27.311Z,24.02
2022-09-15T18:03:53.958Z,24.06
2022-09-15T18:06:20.428Z,24.05
2022-09-15T18:08:46.876Z,24.08
2022-09-15T18:11:13.642Z,24.02
2022-09-15T18:13:40.066Z,24.04
2022-09-15T18:16:07.937Z,24.09
2022-09-15T18:18:34.457Z,24.08
2022-09-15T18:21:01.142Z,24.08
2022-09-15T18:23:29.619Z,24.03
2022-09-15T18:25:56.352Z,24.05
2022-09-15T18:28:22.827Z,24.06
2022-09-15T18:30:49.902Z,24.05
2022-09-15T18:33:16.392Z,24.02
2022-09-15T18:35:43.028Z,24.03
2022-09-15T18:38:09.517Z,24.06
2022-09-15T18:40:36.049Z,24.06
2022-09-15T18:43:02.478Z,24.03
2022-09-15T18:45:28.905Z,24.00
2022-09-15T18:47:55.474Z,23.94
2022-09-15T18:50:22.713Z,23.89
2022-09-15T18:52:49.477Z,23.86
2022-09-15T18:55:16.939Z,23.76
2022-09-15T18:57:43.685Z,23.73
2022-09-15T19:00:12.026Z,23.57
2022-09-15T19:02:38.646Z,23.56
2022-09-15T19:05:05.796Z,23.60
2022-09-15T19:07:32.306Z,23.54
2022-09-15T19:09:59.043Z,23.43
2022-09-15T19:12:25.584Z,23.47
2022-09-15T19:14:52.058Z,23.50
2022-09-15T19:17:18.510Z,23.51
2022-09-15T19:19:46.505Z,23.58
2022-09-15T19:22:12.991Z,23.59
2022-09-15T19:24:39.454Z,23.62
2022-09-15T19:27:06.321Z,23.63
2022-09-15T19:29:34.896Z,23.63
2022-09-15T19:32:04.828Z,23.64
2022-09-15T19:34:31.254Z,23.63
2022-09-15T19:36:57.855Z,23.58
2022-09-15T19:39:24.294Z,23.61
2022-09-15T19:41:50.771Z,23.57
2022-09-15T19:44:17.260Z,23.59
2022-09-15T19:46:43.807Z,23.56
2022-09-15T19:49:10.337Z,23.54
2022-09-15T19:51:37.227Z,23.54
2022-09-15T19:54:04.476Z,23.54
2022-09-15T19:56:31.126Z,23.53
2022-09-15T19:58:57.807Z,23.51
2022-09-15T20:01:24.726Z,23.52
2022-09-15T20:03:52.676Z,23.51
2022-09-15T20:06:19.192Z,23.55
2022-09-15T20:08:47.408Z,23.58
2022-09-15T20:11:14.345Z,23.61
2022-09-15T20:13:44.125Z,23.58
2022-09-15T20:16:19.738Z,23.63
2022-09-15T20:18:47.753Z,23.66
2022-09-15T20:21:26.952Z,23.54
2022-09-15T20:23:59.431Z,23.65
2022-09-15T20:26:26.178Z,23.62
2022-09-15T20:28:53.592Z,23.69
2022-09-15T20:31:24.637Z,23.70
2022-09-15T20:33:51.817Z,23.78
2022-09-15T20:36:23.422Z,23.77
2022-09-15T20:38:49.976Z,23.78
2022-09-15T20:41:16.989Z,23.81
2022-09-15T20:43:43.498Z,23.65
2022-09-15T20:46:13.776Z,23.77
2022-09-15T20:48:40.359Z,23.73
2022-09-15T20:51:06.811Z,23.76
2022-09-15T20:53:33.525Z,23.74
2022-09-15T20:55:59.978Z,23.64
2022-09-15T20:58:26.453Z,23.75
2022-09-15T21:01:01.576Z,23.74
2022-09-15T21:03:28.139Z,23.80
2022-09-15T21:05:58.181Z,23.80
2022-09-15T21:08:24.614Z,23.72
2022-09-15T21:10:51.012Z,23.72
2022-09-15T21:13:19.260Z,23.73
2022-09-15T21:15:53.338Z,23.79
2022-09-15T21:18:20.376Z,23.86
2022-09-15T21:20:47.814Z,23.86
2022-09-15T21:23:14.281Z,23.90
2022-09-15T21:25:40.697Z,23.92
2022-09-15T21:28:07.741Z,23.90
2022-09-15T21:30:34.152Z,23.88
2022-09-15T21:33:01.206Z,23.87
2022-09-15T21:35:27.627Z,23.89
2022-09-15T21:37:57.593Z,23.90
2022-09-15T21:40:26.536Z,23.93
2022-09-15T21:42:52.955Z,23.98
2022-09-15T21:45:19.855Z,23.89
2022-09-15T21:47:46.305Z,23.86
2022-09-15T21:50:12.756Z,23.83
2022-09-15T21:52:39.542Z,23.76
2022-09-15T21:55:06.637Z,23.76
2022-09-15T21:57:33.132Z,23.72
2022-09-15T21:59:59.670Z,23.71
2022-09-15T22:02:26.165Z,23.67
2022-09-15T22:04:52.689Z,23.64
2022-09-15T22:07:19.416Z,23.60
2022-09-15T22:09:46.563Z,23.61
2022-09-15T22:12:13.121Z,23.64
2022-09-15T22:14:39.533Z,23.63
2022-09-15T22:17:05.952Z,23.62
2022-09-15T22:19:32.529Z,23.61
2022-09-15T22:21:59.228Z,23.66
2022-09-15T22:24:26.734Z,23.64
2022-09-15T22:26:53.159Z,23.65
2022-09-15T22:29:19.703Z,23.70
2022-09-15T22:31:46.476Z,23.75
2022-09-15T22:34:12.980Z,23.71
2022-09-15T22:36:39.515Z,23.74
2022-09-15T22:39:06.358Z,23.73
2022-09-15T22:41:33.959Z,23.71
2022-09-15T22:44:00.348Z,23.73
2022-09-15T22:46:27.072Z,23.72
2022-09-15T22:48:53.568Z,23.64
2022-09-15T22:51:20.017Z,23.67
2022-09-15T22:53:46.847Z,23.65
2022-09-15T22:56:14.664Z,23.64
2022-09-15T22:58:41.808Z,23.68
2022-09-15T23:01:09.826Z,23.65
2022-09-15T23:03:36.994Z,23.61
2022-09-15T23:06:03.394Z,23.58
2022-09-15T23:08:29.991Z,23.59
2022-09-15T23:11:06.330Z,23.57
2022-09-15T23:13:33.220Z,23.58
2022-09-15T23:15:59.738Z,23.49
2022-09-15T23:18:27.351Z,23.50
2022-09-15T23:20:57.861Z,23.53
2022-09-15T23:23:24.273Z,23.46
2022-09-15T23:25:50.720Z,23.40
2022-09-15T23:28:17.226Z,23.35
2022-09-15T23:30:43.757Z,23.32
2022-09-15T23:33:10.155Z,23.36
2022-09-15T23:35:36.656Z,23.36
2022-09-15T23:38:03.044Z,23.34
2022-09-15T23:40:29.782Z,23.37
2022-09-15T23:42:56.295Z,23.30
2022-09-15T23:45:22.711Z,23.28
2022-09-15T23:47:49.378Z,23.25
2022-09-15T23:50:15.892Z,23.24
2022-09-15T23:52:42.349Z,23.21
2022-09-15T23:55:08.927Z,23.25
2022-09-15T23:57:35.553Z,23.22
